• Join FlightAware (Why Join?)
  • Login
  • US Flag 
03:15AM EDT


 

Airport Tracker/Info


-or-


 

Live Flight TrackerFlight Track Log ✈ DAL1550 ✈ 18-Apr-2013 ✈ KLAS - KMSP

Flight Track Log - Related Links

Times and Time Zones

All times are in EDT time to prevent confusion due to time zone crossing. See the DAL1550 flight status page for this flight to view local times or setup timezone preferences in your user account.

Time Position Orientation Groundspeed Altitude Reporting Facility
EDT Latitude Longitude Course Direction KTS MPH feet Rate Location/Type
10:27AM 36.1103 -115.1464 90° East 167 192 3,300  Level Los Angeles Center
10:28AM 36.1375 -115.1028 52° Northeast 227 261 4,900 1,680 Climbing Los Angeles Center
10:29AM 36.1361 -115.0642 93° East 240 276 5,700 2,460 Climbing Los Angeles Center
10:29AM 36.1392 -115.0117 86° East 264 304 7,400 2,880 Climbing Los Angeles Center
10:30AM 36.1686 -114.7147 39° Northeast  Level FlightAware Approximate
10:30AM 36.1428 -114.9722 84° East 265 305 8,700  Level Los Angeles Center
10:31AM 36.1833 -114.5715 90° East  Level FlightAware Approximate
10:31AM 36.1553 -114.8511 83° East 296 341 11,000  Level Los Angeles Center
10:32AM 36.1833 -114.4196 90° East  Level FlightAware Approximate
10:32AM 36.1781 -114.7361 76° East 340 391 12,800  Level Los Angeles Center
10:33AM 36.1833 -114.2677 90° East  Level FlightAware Approximate
10:33AM 36.1889 -114.6356 82° East 370 426 14,600  Level Los Angeles Center
10:34AM 36.1906 -114.4739 89° East 391 450 17,200 2,220 Climbing Los Angeles Center
10:35AM 36.1911 -114.3367 90° East 398 458 19,200 1,680 Climbing Los Angeles Center
10:36AM 36.2214 -114.2078 74° East 401 461 20,700 1,440 Climbing Los Angeles Center
10:37AM 36.2967 -114.1133 45° Northeast 386 444 22,500 1,680 Climbing Los Angeles Center
10:38AM 36.4056 -113.9769 45° Northeast 398 458 24,600 1,620 Climbing Los Angeles Center
10:39AM 36.4839 -113.8761 46° Northeast 405 466 25,900 1,020 Climbing Los Angeles Center
10:40AM 36.5453 -113.7975 46° Northeast 411 473 26,800 1,260 Climbing Los Angeles Center
10:41AM 36.6422 -113.6753 45° Northeast 413 475 28,600 1,020 Climbing Los Angeles Center
10:42AM 36.7231 -113.5728 45° Northeast 414 476 29,000 180 Climbing Los Angeles Center
10:43AM 36.8206 -113.4461 46° Northeast 421 484 29,000  Level Los Angeles Center
10:44AM 36.9033 -113.3408 45° Northeast 425 489 29,000  Level Los Angeles Center
10:45AM 36.9842 -113.2344 46° Northeast 424 488 29,000  Level Los Angeles Center
10:46AM 37.0650 -113.1292 46° Northeast 422 486 29,000  Level Los Angeles Center
10:47AM 37.1456 -113.0236 46° Northeast 422 486 29,000  Level Los Angeles Center
10:48AM 37.1928 -112.9603 47° Northeast 421 484 29,000  Level Salt Lake Center
10:49AM 37.2894 -112.8344 46° Northeast 420 483 29,000  Level Salt Lake Center
10:50AM 37.3700 -112.7292 46° Northeast 422 486 29,000  Level Salt Lake Center
10:51AM 37.4503 -112.6239 46° Northeast 424 488 29,000  Level Salt Lake Center
10:52AM 37.5294 -112.5178 47° Northeast 423 487 29,000  Level Salt Lake Center
10:53AM 37.6103 -112.4131 46° Northeast 422 486 29,000  Level Salt Lake Center
10:54AM 37.6881 -112.3019 48° Northeast 424 488 29,000  Level Salt Lake Center
10:55AM 37.7683 -112.1547 55° Northeast 426 490 29,000  Level Salt Lake Center
10:56AM 37.8325 -112.0300 57° Northeast 426 490 29,000  Level Salt Lake Center
10:57AM 37.8967 -111.9025 57° Northeast 429 494 29,000  Level Salt Lake Center
10:58AM 37.9617 -111.7764 57° Northeast 429 494 29,000  Level Salt Lake Center
10:59AM 38.0269 -111.6489 57° Northeast 431 496 29,000  Level Salt Lake Center
11:00AM 38.0914 -111.5225 57° Northeast 430 495 29,000  Level Salt Lake Center
11:01AM 38.1547 -111.3958 58° Northeast 426 490 29,000  Level Salt Lake Center
11:02AM 38.2303 -111.2467 57° Northeast 422 486 29,000  Level Salt Lake Center
11:03AM 38.2917 -111.1211 58° Northeast 419 482 29,000  Level Salt Lake Center
11:04AM 38.3539 -110.9978 57° Northeast 416 479 29,000  Level Salt Lake Center
11:06AM 38.4181 -110.8675 58° Northeast 415 478 29,000  Level Salt Lake Center
11:07AM 38.4764 -110.7483 58° Northeast 414 476 29,000  Level Salt Lake Center
11:08AM 38.5433 -110.6106 58° Northeast 410 472 29,000  Level Salt Lake Center
11:09AM 38.6014 -110.4917 58° Northeast 411 473 29,000  Level Salt Lake Center
11:10AM 38.6681 -110.3514 59° Northeast 413 475 29,000  Level Denver Center
11:11AM 38.7350 -110.2119 58° Northeast 413 475 29,000  Level Denver Center
11:12AM 38.7847 -110.1131 57° Northeast 414 476 29,000  Level Salt Lake Center
11:13AM 38.8528 -109.9731 58° Northeast 414 476 29,000  Level Salt Lake Center
11:14AM 38.9100 -109.8531 58° Northeast 412 474 29,000  Level Salt Lake Center
11:15AM 38.9769 -109.7139 58° Northeast 410 472 29,000  Level Salt Lake Center
11:16AM 39.0339 -109.5942 58° Northeast 409 471 29,000  Level Salt Lake Center
11:17AM 39.0908 -109.4725 59° Northeast 414 476 29,000  Level Salt Lake Center
11:18AM 39.1594 -109.3283 58° Northeast 420 483 29,000  Level Salt Lake Center
11:19AM 39.2189 -109.2025 59° Northeast 427 491 29,000  Level Salt Lake Center
11:20AM 39.2964 -109.0294 60° Northeast 432 497 29,000  Level Denver Center
11:21AM 39.3553 -108.9028 59° Northeast 431 496 29,000  Level Denver Center
11:22AM 39.4236 -108.7567 59° Northeast 429 494 29,000  Level Denver Center
11:23AM 39.4817 -108.6317 59° Northeast 430 495 29,000  Level Denver Center
11:24AM 39.5486 -108.4850 59° Northeast 429 494 29,000  Level Denver Center
11:25AM 39.6075 -108.3575 59° Northeast 434 499 29,000  Level Denver Center
11:26AM 39.6764 -108.2081 59° Northeast 435 501 29,000  Level Denver Center
11:27AM 39.7328 -108.0811 60° Northeast 423 487 29,000  Level Denver Center
11:28AM 39.8014 -107.9303 59° Northeast 434 499 29,000  Level Denver Center
11:29AM 39.8592 -107.8000 60° Northeast 435 501 29,000  Level Denver Center
11:30AM 39.9264 -107.6478 60° Northeast 435 501 29,000  Level Denver Center
11:31AM 39.9850 -107.5164 60° Northeast 437 503 29,000  Level Denver Center
11:32AM 40.0533 -107.3656 59° Northeast 434 499 29,000  Level Denver Center
11:33AM 40.1103 -107.2353 60° Northeast 433 498 29,000  Level Denver Center
11:35AM 40.1778 -107.0831 60° Northeast 434 499 29,000  Level Denver Center
11:36AM 40.2356 -106.9503 60° Northeast 437 503 29,000  Level Denver Center
11:37AM 40.2956 -106.8150 60° Northeast 434 499 29,000  Level Denver Center
11:38AM 40.3567 -106.6769 60° Northeast 436 502 29,000  Level Denver Center
11:39AM 40.4169 -106.5367 61° Northeast 438 504 29,000  Level Denver Center
11:40AM 40.4856 -106.3767 61° Northeast 439 505 29,000  Level Denver Center
11:41AM 40.5433 -106.2414 61° Northeast 442 509 29,000  Level Denver Center
11:42AM 40.6069 -106.0883 61° Northeast 444 511 29,000  Level Denver Center
11:43AM 40.6678 -105.9447 61° Northeast 445 512 29,000  Level Denver Center
11:44AM 40.7289 -105.8003 61° Northeast 445 512 29,000  Level Denver Center
11:45AM 40.7903 -105.6544 61° Northeast 448 516 29,000 60 Level Denver Center
11:46AM 40.8511 -105.5056 62° Northeast 454 522 29,200 480 Climbing Denver Center
11:47AM 40.9136 -105.3569 61° Northeast 457 526 30,100 720 Climbing Denver Center
11:48AM 40.9750 -105.2058 62° Northeast 460 529 30,700 420 Climbing Denver Center
11:49AM 41.0344 -105.0583 62° Northeast 464 534 31,000 120 Climbing Denver Center
11:50AM 41.1036 -104.8928 61° Northeast 461 531 31,000  Level Denver Center
11:51AM 41.1717 -104.7242 62° Northeast 465 535 31,000  Level Denver Center
11:52AM 41.2297 -104.5822 61° Northeast 461 531 31,000  Level Denver Center
11:53AM 41.2972 -104.4128 62° Northeast 463 533 31,000  Level Denver Center
11:54AM 41.3556 -104.2692 62° Northeast 463 533 31,000  Level Denver Center
11:55AM 41.4233 -104.0986 62° Northeast 466 536 31,000  Level Denver Center
11:56AM 41.4814 -103.9522 62° Northeast 469 540 31,000  Level Denver Center
11:57AM 41.5397 -103.8056 62° Northeast 470 541 31,000  Level Denver Center
11:58AM 41.6061 -103.6342 63° Northeast 466 536 31,000  Level Denver Center
11:59AM 41.6647 -103.4875 62° Northeast 468 539 31,000  Level Denver Center
12:00PM 41.7306 -103.3156 63° Northeast 468 539 31,000  Level Denver Center
12:01PM 41.7867 -103.1686 63° Northeast 465 535 31,000  Level Denver Center
12:02PM 41.8539 -102.9939 63° Northeast 472 543 31,000  Level Denver Center
12:03PM 41.9094 -102.8464 63° Northeast 466 536 31,000  Level Denver Center
12:04PM 41.9767 -102.6722 63° Northeast 471 542 31,000  Level Denver Center
12:05PM 42.0322 -102.5222 63° Northeast 470 541 31,000  Level Denver Center
12:06PM 42.0978 -102.3458 63° Northeast 472 543 31,000  Level Denver Center
12:07PM 42.1533 -102.1972 63° Northeast 475 547 31,000  Level Denver Center
12:08PM 42.2111 -102.0447 63° Northeast 477 549 31,000  Level Denver Center
12:09PM 42.2778 -101.8636 64° Northeast 477 549 31,000  Level Denver Center
12:11PM 42.3319 -101.7114 64° Northeast 476 548 31,000  Level Denver Center
12:12PM 42.3983 -101.5319 63° Northeast 477 549 31,000  Level Denver Center
12:13PM 42.4547 -101.3764 64° Northeast 479 551 31,000  Level Denver Center
12:14PM 42.5208 -101.1925 64° Northeast 483 556 31,000  Level Denver Center
12:15PM 42.5772 -101.0356 64° Northeast 484 557 31,000  Level Denver Center
12:16PM 42.6333 -100.8775 64° Northeast 485 558 31,000  Level Denver Center
12:17PM 42.6986 -100.6914 64° Northeast 486 559 31,000  Level Denver Center
12:18PM 42.7606 -100.5158 64° Northeast 486 559 31,000  Level Denver Center
12:19PM 42.8189 -100.3475 65° Northeast 489 563 31,000  Level Denver Center
12:20PM 42.8764 -100.1814 65° Northeast 487 560 31,000  Level Denver Center
12:21PM 42.9219 -100.0492 65° Northeast 487 560 31,000  Level Minneapolis Center
12:22PM 42.9800 -99.8811 65° Northeast 489 563 31,000  Level Minneapolis Center
12:23PM 43.0369 -99.7108 65° Northeast 492 566 31,000  Level Minneapolis Center
12:24PM 43.0936 -99.5461 65° Northeast 490 564 31,000  Level Minneapolis Center
12:25PM 43.1633 -99.3389 65° Northeast 493 567 31,000  Level Minneapolis Center
12:26PM 43.2197 -99.1675 66° East 495 570 31,000  Level Minneapolis Center
12:27PM 43.2772 -98.9953 65° Northeast 497 572 31,000  Level Minneapolis Center
12:28PM 43.3400 -98.8061 65° Northeast 500 575 31,000  Level Minneapolis Center
12:29PM 43.3853 -98.6686 66° East 497 572 31,000  Level Minneapolis Center
12:30PM 43.4528 -98.4622 66° East 495 570 31,000  Level Minneapolis Center
12:31PM 43.5094 -98.2875 66° East 499 574 31,000  Level Minneapolis Center
12:32PM 43.5653 -98.1153 66° East 495 570 31,000  Level Minneapolis Center
12:33PM 43.6175 -97.9481 67° East 481 554 31,000  Level Minneapolis Center
12:34PM 43.6689 -97.7872 66° East 466 536 31,000 -60 Level Minneapolis Center
12:35PM 43.7203 -97.6256 66° East 462 532 30,900 -540 Descending Minneapolis Center
12:36PM 43.7808 -97.4311 67° East 461 531 30,000 -840 Descending Minneapolis Center
12:37PM 43.8297 -97.2744 67° East 452 520 29,300 -720 Descending Minneapolis Center
12:38PM 43.8778 -97.1183 67° East 444 511 28,600 -660 Descending Minneapolis Center
12:39PM 43.9244 -96.9633 67° East 438 504 28,000 -660 Descending Minneapolis Center
12:40PM 43.9714 -96.8089 67° East 436 502 27,300 -720 Descending Minneapolis Center
12:41PM 44.0178 -96.6553 67° East 433 498 26,600 -660 Descending Minneapolis Center
12:42PM 44.0650 -96.5022 67° East 434 499 26,000 -600 Descending Minneapolis Center
12:43PM 44.1194 -96.3208 67° East 429 494 25,400 -600 Descending Minneapolis Center
12:44PM 44.2033 -96.2144 42° Northeast 434 499 24,800 -540 Descending Minneapolis Center
12:45PM 44.3056 -96.1486 25° Northeast 439 505 24,300 -420 Descending Minneapolis Center
12:46PM 44.4364 -96.0647 25° Northeast 434 499 24,000 -180 Descending Minneapolis Center
12:48PM 44.5461 -95.9942 25° Northeast 434 499 24,000  Level Minneapolis Center
12:49PM 44.6769 -95.9075 25° Northeast 434 499 24,000  Level Minneapolis Center
12:50PM 44.7233 -95.7628 66° East 408 470 24,000  Level Minneapolis Center
12:51PM 44.6914 -95.6314 109° East 361 415 24,000 -120 Level Minneapolis Center
12:52PM 44.6692 -95.4914 103° East 374 430 23,800 -540 Descending Minneapolis Center
12:53PM 44.6669 -95.3400 91° East 385 443 23,000 -1,200 Descending Minneapolis Center
12:54PM 44.6633 -95.1644 92° East 377 434 21,400 -1,620 Descending Minneapolis Center
12:55PM 44.6600 -95.0239 92° East 365 420 19,700 -1,800 Descending Minneapolis Center
12:56PM 44.6567 -94.8917 92° East 350 403 17,800 -1,860 Descending Minneapolis Center
12:57PM 44.6542 -94.7633 92° East 335 386 15,900 -2,100 Descending Minneapolis Center
12:58PM 44.6503 -94.6272 92° East 337 388 13,500 -1,920 Descending Minneapolis Center
12:59PM 44.6533 -94.5272 88° East 333 383 12,500 -1,380 Descending FAA TRACON SMA TRACON (SMA)
12:59PM 44.6519 -94.4781 92° East 332 382 12,000 -1,080 Descending FAA TRACON SMA TRACON (SMA)
12:59PM 44.6497 -94.4386 95° East 329 379 11,800 -780 Descending FAA TRACON SMA TRACON (SMA)
01:00PM 44.6489 -94.4000 92° East 323 372 11,500 -1,200 Descending FAA TRACON SMA TRACON (SMA)
01:00PM 44.6525 -94.3511 84° East 326 375 11,000 -780 Descending FAA TRACON SMA TRACON (SMA)
01:00PM 44.6619 -94.3131 71° East 333 383 11,000  Level FAA TRACON SMA TRACON (SMA)
01:01PM 44.6703 -94.2739 73° East 337 388 11,000  Level FAA TRACON SMA TRACON (SMA)
01:01PM 44.6817 -94.2258 72° East 338 389 11,000  Level FAA TRACON SMA TRACON (SMA)
01:01PM 44.6897 -94.1872 74° East 338 389 11,000  Level FAA TRACON SMA TRACON (SMA)
01:02PM 44.6989 -94.1481 72° East 340 391 11,000  Level FAA TRACON SMA TRACON (SMA)
01:02PM 44.7094 -94.0983 73° East 344 396 11,000  Level FAA TRACON SMA TRACON (SMA)
01:02PM 44.7175 -94.0592 74° East 342 394 11,000  Level FAA TRACON SMA TRACON (SMA)
01:03PM 44.7264 -94.0206 72° East 339 390 11,000  Level FAA TRACON SMA TRACON (SMA)
01:03PM 44.7358 -93.9711 75° East 340 391 11,000  Level FAA TRACON SMA TRACON (SMA)
01:03PM 44.7450 -93.9317 72° East 342 394 11,000  Level FAA TRACON SMA TRACON (SMA)
01:04PM 44.7539 -93.8928 72° East 342 394 11,000  Level FAA TRACON SMA TRACON (SMA)
01:04PM 44.7647 -93.8436 73° East 343 395 11,000  Level FAA TRACON SMA TRACON (SMA)
01:04PM 44.7733 -93.8044 73° East 341 392 11,000 -180 Level FAA TRACON SMA TRACON (SMA)
01:05PM 44.7814 -93.7650 74° East 341 392 10,900  Descending FAA TRACON SMA TRACON (SMA)
01:05PM 44.7922 -93.7158 73° East 343 395 11,000 120 Climbing FAA TRACON SMA TRACON (SMA)
01:05PM 44.8017 -93.6761 71° East 346 398 11,000  Level FAA TRACON SMA TRACON (SMA)
01:06PM 44.8097 -93.6361 74° East 346 398 11,000 -300 Level FAA TRACON SMA TRACON (SMA)
01:06PM 44.8197 -93.5869 74° East 341 392 10,800 -780 Descending FAA TRACON SMA TRACON (SMA)
01:06PM 44.8289 -93.5494 71° East 334 384 10,500 -1,080 Descending FAA TRACON SMA TRACON (SMA)
01:07PM 44.8367 -93.5125 73° East 321 369 10,100 -1,200 Descending FAA TRACON SMA TRACON (SMA)
01:07PM 44.8461 -93.4686 73° East 308 354 9,700 -1,200 Descending FAA TRACON SMA TRACON (SMA)
01:07PM 44.8536 -93.4342 73° East 301 346 9,300 -1,500 Descending FAA TRACON SMA TRACON (SMA)
01:08PM 44.8583 -93.4000 79° East 294 338 8,700 -1,800 Descending FAA TRACON SMA TRACON (SMA)
01:08PM 44.8486 -93.3614 110° East 282 325 8,100 -1,200 Descending FAA TRACON SMA TRACON (SMA)
01:08PM 44.8378 -93.3331 118° Southeast 267 307 7,900 -300 Descending FAA TRACON SMA TRACON (SMA)
01:09PM 44.8278 -93.3072 119° Southeast 248 285 7,900 120 Level FAA TRACON SMA TRACON (SMA)
01:09PM 44.8150 -93.2792 123° Southeast 224 258 8,000  Climbing FAA TRACON SMA TRACON (SMA)
01:09PM 44.8044 -93.2592 127° Southeast 210 242 7,900 -1,080 Descending FAA TRACON SMA TRACON (SMA)
01:10PM 44.7919 -93.2353 126° Southeast 198 228 7,300 -1,740 Descending FAA TRACON SMA TRACON (SMA)
01:10PM 44.7819 -93.2164 127° Southeast 196 226 6,800 -1,560 Descending FAA TRACON SMA TRACON (SMA)
01:10PM 44.7714 -93.1981 129° Southeast 196 226 6,300 -1,200 Descending FAA TRACON SMA TRACON (SMA)
01:11PM 44.7597 -93.1806 133° Southeast 198 228 6,000 -600 Descending FAA TRACON SMA TRACON (SMA)
01:11PM 44.7447 -93.1597 135° Southeast 197 227 5,900 -780 Descending FAA TRACON SMA TRACON (SMA)
01:11PM 44.7331 -93.1436 136° Southeast 192 221 5,500 -1,260 Descending FAA TRACON SMA TRACON (SMA)
01:12PM 44.7222 -93.1269 132° Southeast 190 219 5,100 -780 Descending FAA TRACON SMA TRACON (SMA)
01:12PM 44.7097 -93.1039 127° Southeast 190 219 5,000 -180 Descending FAA TRACON SMA TRACON (SMA)
01:12PM 44.6994 -93.0861 129° Southeast 192 221 5,000  Level FAA TRACON SMA TRACON (SMA)
01:13PM 44.6864 -93.0636 129° Southeast 191 220 5,000  Level FAA TRACON SMA TRACON (SMA)
01:13PM 44.6758 -93.0464 131° Southeast 190 219 5,000 -180 Level FAA TRACON SMA TRACON (SMA)
01:13PM 44.6656 -93.0289 130° Southeast 189 217 4,900 -480 Descending FAA TRACON SMA TRACON (SMA)
01:14PM 44.6525 -93.0069 130° Southeast 190 219 4,700 -480 Descending FAA TRACON SMA TRACON (SMA)
01:14PM 44.6425 -92.9883 127° Southeast 192 221 4,600 -480 Descending FAA TRACON SMA TRACON (SMA)
01:14PM 44.6319 -92.9711 131° Southeast 193 222 4,400 -600 Descending FAA TRACON SMA TRACON (SMA)
01:15PM 44.6189 -92.9486 129° Southeast 192 221 4,200 -600 Descending FAA TRACON SMA TRACON (SMA)
01:15PM 44.6194 -92.9261 88° East 198 228 4,000 -360 Descending FAA TRACON SMA TRACON (SMA)
01:15PM 44.6311 -92.9131 39° Northeast 200 230 4,000  Level FAA TRACON SMA TRACON (SMA)
01:16PM 44.6447 -92.9058 21° North 183 211 4,000  Level FAA TRACON SMA TRACON (SMA)
01:16PM 44.6633 -92.8953 22° Northeast 182 209 4,000  Level FAA TRACON SMA TRACON (SMA)
01:16PM 44.6778 -92.8878 20° North 179 206 4,000 -180 Level FAA TRACON SMA TRACON (SMA)
01:17PM 44.6928 -92.8853 North 184 212 3,900 -180 Descending FAA TRACON SMA TRACON (SMA)
01:17PM 44.7119 -92.8942 342° North 189 217 3,900 120 Level FAA TRACON SMA TRACON (SMA)
01:17PM 44.7250 -92.9019 337° Northwest 176 203 4,000 120 Climbing FAA TRACON SMA TRACON (SMA)
01:18PM 44.7417 -92.9111 339° North 168 193 4,000 -180 Level FAA TRACON SMA TRACON (SMA)
01:18PM 44.7531 -92.9228 324° Northwest 174 200 3,900  Descending FAA TRACON SMA TRACON (SMA)
01:18PM 44.7608 -92.9414 300° West 179 206 4,000 120 Climbing FAA TRACON SMA TRACON (SMA)
01:19PM 44.7714 -92.9650 302° West 181 208 4,000  Level FAA TRACON SMA TRACON (SMA)
01:19PM 44.7789 -92.9836 300° West 180 207 4,000  Level FAA TRACON SMA TRACON (SMA)
01:19PM 44.7894 -93.0072 302° West 184 212 4,000 -300 Level FAA TRACON SMA TRACON (SMA)
01:20PM 44.7978 -93.0258 302° West 184 212 3,800 -660 Descending FAA TRACON SMA TRACON (SMA)
01:20PM 44.8056 -93.0447 300° West 182 209 3,600 -1,020 Descending FAA TRACON SMA TRACON (SMA)
01:20PM 44.8139 -93.0633 302° West 182 209 3,200 -1,200 Descending FAA TRACON SMA TRACON (SMA)